Time;durP1;ratioP1;P1;durP2;ratioP2;P2;SDS_P1;SDS_P2;PMS_P1;PMS_P2;Temp;Humidity;BMP_temperature;BMP_pressure;BME280_temperature;BME280_humidity;BME280_pressure;Samples;Min_cycle;Max_cycle;Signal;HPM_P1;HPM_P2
2023/04/27 00:01:29;;;;;;;9.98;5.53;;;;;;;;;;5054610;28;19955;-74
2023/04/27 00:03:55;;;;;;;;;;;;;;;;;;5054196;28;20132;-74
2023/04/27 00:06:20;;;;;;;8.32;5.25;;;;;;;;;;5054515;28;19939;-74
2023/04/27 00:08:46;;;;;;;;;;;;;;;;;;5052224;28;20033;-73
2023/04/27 00:11:11;;;;;;;10.48;5.55;;;;;;;;;;5052875;28;20490;-73
2023/04/27 00:13:37;;;;;;;;;;;;;;;;;;5052119;28;20136;-73
2023/04/27 00:16:02;;;;;;;12.82;5.65;;;;;;;;;;5051986;28;20003;-73
2023/04/27 00:18:28;;;;;;;;;;;;;;;;;;5052523;28;20480;-74
2023/04/27 00:20:53;;;;;;;8.45;5.65;;;;;;;;;;5051880;28;20083;-73
2023/04/27 00:23:18;;;;;;;9.20;5.75;;;;;;;;;;5052257;28;20032;-74
2023/04/27 00:25:44;;;;;;;;;;;;;;;;;;5052183;28;20024;-74
2023/04/27 00:28:09;;;;;;;10.77;5.97;;;;;;;;;;5051674;28;19912;-73
2023/04/27 00:30:35;;;;;;;11.48;5.95;;;;;;;;;;5050043;28;20108;-73
2023/04/27 00:33:01;;;;;;;10.90;5.88;;;;;;;;;;5050826;28;20416;-71
2023/04/27 00:35:26;;;;;;;8.77;5.47;;;;;;;;;;5053008;28;20104;-73
2023/04/27 00:37:54;;;;;;;10.00;6.10;;;;;;;;;;5054672;28;20081;-73
2023/04/27 00:40:20;;;;;;;10.10;6.43;;;;;;;;;;5053717;28;20063;-73
2023/04/27 00:42:45;;;;;;;;;;;;;;;;;;5055704;28;20445;-73
2023/04/27 00:45:12;;;;;;;10.48;6.35;;;;;;;;;;5059496;28;20007;-73
2023/04/27 00:47:37;;;;;;;10.38;6.10;;;;;;;;;;5059547;28;20119;-73
2023/04/27 00:50:03;;;;;;;;;;;;;;;;;;5063790;28;20128;-73
2023/04/27 00:52:28;;;;;;;13.15;6.00;;;;;;;;;;5059924;28;19912;-73
2023/04/27 00:54:54;;;;;;;;;;;;;;;;;;5043058;28;20028;-73
2023/04/27 00:57:20;;;;;;;10.20;6.05;;;;;;;;;;5058872;28;20362;-74
2023/04/27 00:59:45;;;;;;;11.65;6.50;;;;;;;;;;5054738;28;20531;-74
2023/04/27 01:02:12;;;;;;;9.07;6.75;;;;;;;;;;5053594;28;20040;-73
2023/04/27 01:04:37;;;;;;;;;;;;;;;;;;5059334;28;20029;-73
2023/04/27 01:07:03;;;;;;;10.70;7.25;;;;;;;;;;5055160;28;20257;-73
2023/04/27 01:09:30;;;;;;;10.15;6.90;;;;;;;;;;5070035;28;20107;-73
2023/04/27 01:11:57;;;;;;;;;;;;;;;;;;5055561;28;20507;-73
2023/04/27 01:14:22;;;;;;;10.17;6.77;;;;;;;;;;5054626;28;19928;-73
2023/04/27 01:16:50;;;;;;;12.27;7.47;;;;;;;;;;5059108;28;20275;-73
2023/04/27 01:19:15;;;;;;;13.00;6.80;;;;;;;;;;5053929;28;20099;-73
2023/04/27 01:21:41;;;;;;;8.50;6.57;;;;;;;;;;5059510;28;20044;-73
2023/04/27 01:24:07;;;;;;;;;;;;;;;;;;5064541;28;20032;-73
2023/04/27 01:26:32;;;;;;;12.32;6.70;;;;;;;;;;5059184;28;19912;-73
2023/04/27 01:28:58;;;;;;;;;;;;;;;;;;5061146;28;20067;-73
2023/04/27 01:31:25;;;;;;;13.15;6.97;;;;;;;;;;5057245;28;19917;-73
2023/04/27 01:33:52;;;;;;;12.20;6.63;;;;;;;;;;5057641;28;20535;-73
2023/04/27 01:36:17;;;;;;;;;;;;;;;;;;5056186;28;20139;-72
2023/04/27 01:38:43;;;;;;;10.05;6.53;;;;;;;;;;5060836;28;20367;-73
2023/04/27 01:41:11;;;;;;;9.30;6.57;;;;;;;;;;5056557;28;20397;-73
2023/04/27 01:43:36;;;;;;;;;;;;;;;;;;5043442;28;20025;-73
2023/04/27 01:46:08;;;;;;;12.73;6.28;;;;;;;;;;5055831;28;19920;-73
2023/04/27 01:48:34;;;;;;;8.70;6.10;;;;;;;;;;5058453;28;20128;-73
2023/04/27 01:50:59;;;;;;;;;;;;;;;;;;5039383;28;20049;-72
2023/04/27 01:53:25;;;;;;;13.20;5.95;;;;;;;;;;5058203;28;19916;-73
2023/04/27 01:55:50;;;;;;;;;;;;;;;;;;5064651;28;20047;-73
2023/04/27 01:58:16;;;;;;;9.40;5.38;;;;;;;;;;5049242;28;19935;-73
2023/04/27 02:00:41;;;;;;;;;;;;;;;;;;5049233;28;20028;-73
2023/04/27 02:03:07;;;;;;;10.88;6.20;;;;;;;;;;5056199;28;19920;-73
2023/04/27 02:05:32;;;;;;;;;;;;;;;;;;5057716;28;20472;-73
2023/04/27 02:07:58;;;;;;;11.82;6.00;;;;;;;;;;5058528;28;19924;-73
2023/04/27 02:10:23;;;;;;;;;;;;;;;;;;5056708;28;20029;-73
2023/04/27 02:12:52;;;;;;;8.38;5.90;;;;;;;;;;5052704;28;19923;-73
2023/04/27 02:15:18;;;;;;;;;;;;;;;;;;5059808;28;20037;-74
2023/04/27 02:17:44;;;;;;;9.70;6.22;;;;;;;;;;5062193;28;19912;-73
2023/04/27 02:20:11;;;;;;;14.68;6.65;;;;;;;;;;5058673;28;20491;-73
2023/04/27 02:22:36;;;;;;;;;;;;;;;;;;5064736;28;20052;-73
2023/04/27 02:25:02;;;;;;;10.85;6.03;;;;;;;;;;5059323;28;19971;-73
2023/04/27 02:27:27;;;;;;;;;;;;;;;;;;5064152;28;20032;-73
2023/04/27 02:29:53;;;;;;;11.52;7.30;;;;;;;;;;5059281;28;19995;-73
2023/04/27 02:32:18;;;;;;;;;;;;;;;;;;5064147;28;20088;-73
2023/04/27 02:34:44;;;;;;;12.95;7.13;;;;;;;;;;5058634;28;20367;-73
2023/04/27 02:37:09;;;;;;;;;;;;;;;;;;5064657;28;20034;-73
2023/04/27 02:39:35;;;;;;;10.27;7.35;;;;;;;;;;5059166;28;20411;-73
2023/04/27 02:42:01;;;;;;;;;;;;;;;;;;5065973;28;20158;-73
2023/04/27 02:44:27;;;;;;;10.38;6.25;;;;;;;;;;5056574;28;19909;-73
2023/04/27 02:46:52;;;;;;;;;;;;;;;;;;5068827;28;20048;-73
2023/04/27 02:49:18;;;;;;;12.05;6.22;;;;;;;;;;5065828;28;19909;-73
2023/04/27 02:51:43;;;;;;;8.85;5.72;;;;;;;;;;5069591;28;20124;-73
2023/04/27 02:54:08;;;;;;;;;;;;;;;;;;5066453;28;20041;-73
2023/04/27 02:56:34;;;;;;;9.43;5.93;;;;;;;;;;5070531;28;20382;-73
2023/04/27 02:58:59;;;;;;;;;;;;;;;;;;5052387;28;20032;-73
2023/04/27 03:01:25;;;;;;;10.60;5.53;;;;;;;;;;5052696;28;19956;-73
2023/04/27 03:03:50;;;;;;;;;;;;;;;;;;5035602;28;20071;-72
2023/04/27 03:06:15;;;;;;;7.75;5.78;;;;;;;;;;5051394;28;20664;-73
2023/04/27 03:08:41;;;;;;;8.82;5.60;;;;;;;;;;5053768;28;20078;-73
2023/04/27 03:11:08;;;;;;;7.82;6.57;;;;;;;;;;5068155;28;20039;-73
2023/04/27 03:13:40;;;;;;;11.10;6.80;;;;;;;;;;5054559;28;20148;-73
2023/04/27 03:16:10;;;;;;;9.75;6.97;;;;;;;;;;5053954;28;20403;-73
2023/04/27 03:18:35;;;;;;;14.82;7.07;;;;;;;;;;5035931;28;20029;-73
2023/04/27 03:21:01;;;;;;;;;;;;;;;;;;5056765;28;20411;-73
2023/04/27 03:23:26;;;;;;;11.93;6.50;;;;;;;;;;5054511;28;19958;-74
2023/04/27 03:25:52;;;;;;;11.43;7.32;;;;;;;;;;5057244;28;20107;-73
2023/04/27 03:28:17;;;;;;;;;;;;;;;;;;5055250;28;20029;-73
2023/04/27 03:30:43;;;;;;;9.55;6.13;;;;;;;;;;5057568;28;19966;-73
2023/04/27 03:33:08;;;;;;;;;;;;;;;;;;5056421;28;20054;-73
2023/04/27 03:35:34;;;;;;;12.18;7.50;;;;;;;;;;5057653;28;19912;-73
2023/04/27 03:37:59;;;;;;;14.15;7.07;;;;;;;;;;5055742;28;20035;-73
2023/04/27 03:40:24;;;;;;;;;;;;;;;;;;5057024;28;20040;-74
2023/04/27 03:42:50;;;;;;;12.88;7.32;;;;;;;;;;5055451;28;19909;-74
2023/04/27 03:45:17;;;;;;;;;;;;;;;;;;5059072;28;20036;-73
2023/04/27 03:47:42;;;;;;;11.88;7.72;;;;;;;;;;5056705;28;20445;-74
2023/04/27 03:50:08;;;;;;;;;;;;;;;;;;5059599;28;20120;-73
2023/04/27 03:52:33;;;;;;;11.35;6.32;;;;;;;;;;5056712;28;19909;-73
2023/04/27 03:54:58;;;;;;;15.77;7.30;;;;;;;;;;5066787;28;20510;-73
2023/04/27 03:57:25;;;;;;;10.90;6.85;;;;;;;;;;5055176;28;20017;-73
2023/04/27 03:59:50;;;;;;;;;;;;;;;;;;5050935;28;20120;-74
2023/04/27 04:02:16;;;;;;;11.68;7.03;;;;;;;;;;5050486;28;19908;-74
2023/04/27 04:04:41;;;;;;;;;;;;;;;;;;5051095;28;20036;-73
2023/04/27 04:07:07;;;;;;;10.18;7.53;;;;;;;;;;5051862;28;19915;-73
2023/04/27 04:09:32;;;;;;;;;;;;;;;;;;5050678;28;20095;-74
2023/04/27 04:11:58;;;;;;;14.40;7.93;;;;;;;;;;5050550;28;20368;-74
2023/04/27 04:14:23;;;;;;;12.43;8.00;;;;;;;;;;5030591;28;20053;-73
2023/04/27 04:16:50;;;;;;;12.75;7.93;;;;;;;;;;5045121;28;20033;-73
2023/04/27 04:19:15;;;;;;;;;;;;;;;;;;5052732;28;20036;-74
2023/04/27 04:21:41;;;;;;;14.32;7.43;;;;;;;;;;5035121;28;20348;-73
2023/04/27 04:24:06;;;;;;;;;;;;;;;;;;5052256;28;20397;-73
2023/04/27 04:26:32;;;;;;;8.55;6.30;;;;;;;;;;5034883;28;19915;-74
2023/04/27 04:28:57;;;;;;;;;;;;;;;;;;5051500;28;20033;-74
2023/04/27 04:31:23;;;;;;;8.55;6.22;;;;;;;;;;5050844;28;19991;-74
2023/04/27 04:33:48;;;;;;;;;;;;;;;;;;5056565;28;20040;-74
2023/04/27 04:36:14;;;;;;;9.75;5.47;;;;;;;;;;5053968;28;20501;-73
2023/04/27 04:38:40;;;;;;;;;;;;;;;;;;5042749;28;20036;-76
2023/04/27 04:41:06;;;;;;;10.18;5.60;;;;;;;;;;5055995;28;19992;-74
2023/04/27 04:43:32;;;;;;;8.80;5.80;;;;;;;;;;5059392;28;20043;-73
2023/04/27 04:46:00;;;;;;;9.32;5.28;;;;;;;;;;5057909;28;20028;-75
2023/04/27 04:48:27;;;;;;;11.25;5.60;;;;;;;;;;5039022;28;20059;-73
2023/04/27 04:50:53;;;;;;;9.40;5.25;;;;;;;;;;5057812;28;20083;-74
2023/04/27 04:53:19;;;;;;;;;;;;;;;;;;5054338;28;20041;-73
2023/04/27 04:55:45;;;;;;;9.00;4.72;;;;;;;;;;5061723;28;19951;-74
2023/04/27 04:58:10;;;;;;;;;;;;;;;;;;5053818;28;20083;-73
2023/04/27 05:00:35;;;;;;;8.15;5.25;;;;;;;;;;5043136;28;19916;-73
2023/04/27 05:03:01;;;;;;;;;;;;;;;;;;5062089;28;20056;-73
2023/04/27 05:05:26;;;;;;;8.73;5.15;;;;;;;;;;5050849;28;19943;-74
2023/04/27 05:07:52;;;;;;;8.05;4.63;;;;;;;;;;5029588;28;20033;-73
2023/04/27 05:10:17;;;;;;;;;;;;;;;;;;5051145;28;20024;-74
2023/04/27 05:12:43;;;;;;;11.80;5.10;;;;;;;;;;5050475;28;19917;-76
2023/04/27 05:15:08;;;;;;;;;;;;;;;;;;5053038;28;20037;-73
2023/04/27 05:17:59;;;;;;;8.52;5.13;;;;;;;;;;5051732;28;20000;-73
2023/04/27 05:20:25;;;;;;;8.73;4.82;;;;;;;;;;5051667;28;20039;-74
2023/04/27 05:22:51;;;;;;;6.55;5.10;;;;;;;;;;5056082;28;20116;-75
2023/04/27 05:25:16;;;;;;;;;;;;;;;;;;5056292;28;20123;-73
2023/04/27 05:27:41;;;;;;;6.38;4.80;;;;;;;;;;5053789;28;19967;-74
2023/04/27 05:30:07;;;;;;;7.15;5.13;;;;;;;;;;5058864;28;20033;-73
2023/04/27 05:32:35;;;;;;;7.28;5.43;;;;;;;;;;5057422;28;20116;-74
2023/04/27 05:35:01;;;;;;;11.18;5.03;;;;;;;;;;5057401;28;20138;-74
2023/04/27 05:37:26;;;;;;;8.90;5.22;;;;;;;;;;5038585;28;20017;-73
2023/04/27 05:39:52;;;;;;;11.27;5.15;;;;;;;;;;5058812;28;20403;-75
2023/04/27 05:42:17;;;;;;;8.93;5.30;;;;;;;;;;5054158;28;20562;-76
2023/04/27 05:44:43;;;;;;;8.48;5.38;;;;;;;;;;5056838;28;20037;-77
2023/04/27 05:47:08;;;;;;;;;;;;;;;;;;5038417;28;20029;-76
2023/04/27 05:49:34;;;;;;;7.60;5.15;;;;;;;;;;5056188;28;19940;-76
2023/04/27 05:52:00;;;;;;;8.02;5.15;;;;;;;;;;5054705;28;20091;-76
2023/04/27 05:54:26;;;;;;;9.93;5.03;;;;;;;;;;5057459;28;20036;-76
2023/04/27 05:56:51;;;;;;;7.47;5.00;;;;;;;;;;5055542;28;20051;-76
2023/04/27 05:59:17;;;;;;;7.95;4.97;;;;;;;;;;5054442;28;20033;-76
2023/04/27 06:01:42;;;;;;;8.60;5.43;;;;;;;;;;5053885;28;20021;-76
2023/04/27 06:04:08;;;;;;;11.00;5.07;;;;;;;;;;5054424;28;20431;-76
2023/04/27 06:06:34;;;;;;;7.88;5.20;;;;;;;;;;5053820;28;20111;-76
2023/04/27 06:08:59;;;;;;;7.93;4.85;;;;;;;;;;5053137;28;20086;-76
2023/04/27 06:11:25;;;;;;;9.38;5.30;;;;;;;;;;5053629;28;20043;-76
2023/04/27 06:13:51;;;;;;;8.45;5.45;;;;;;;;;;5064226;28;20057;-76
2023/04/27 06:16:16;;;;;;;7.53;5.40;;;;;;;;;;5051943;28;20452;-77
2023/04/27 06:18:42;;;;;;;9.20;4.95;;;;;;;;;;5052140;28;20045;-76
2023/04/27 06:21:07;;;;;;;11.15;5.10;;;;;;;;;;5052556;28;20063;-76
2023/04/27 06:23:33;;;;;;;10.80;5.35;;;;;;;;;;5051990;28;20143;-76
2023/04/27 06:25:58;;;;;;;9.57;5.38;;;;;;;;;;5052492;28;20110;-76
2023/04/27 06:28:24;;;;;;;7.35;5.05;;;;;;;;;;5052343;28;20044;-74
2023/04/27 06:30:49;;;;;;;8.80;5.40;;;;;;;;;;5051469;28;20516;-76
2023/04/27 06:33:15;;;;;;;8.65;4.90;;;;;;;;;;5052121;28;20487;-76
2023/04/27 06:35:40;;;;;;;8.80;5.70;;;;;;;;;;5051936;28;20490;-76
2023/04/27 06:38:06;;;;;;;6.28;5.05;;;;;;;;;;5052509;28;20037;-76
2023/04/27 06:40:31;;;;;;;7.93;4.90;;;;;;;;;;5053246;28;20032;-76
2023/04/27 06:42:57;;;;;;;13.25;5.25;;;;;;;;;;5034452;28;20037;-76
2023/04/27 06:45:22;;;;;;;16.48;6.30;;;;;;;;;;5052243;28;20021;-76
2023/04/27 06:47:48;;;;;;;10.55;5.53;;;;;;;;;;5052487;28;20037;-76
2023/04/27 06:50:14;;;;;;;10.65;5.50;;;;;;;;;;5052492;28;20488;-76
2023/04/27 06:52:39;;;;;;;21.23;9.98;;;;;;;;;;5051629;28;20393;-76
2023/04/27 06:55:05;;;;;;;9.48;6.13;;;;;;;;;;5052566;28;20075;-76
2023/04/27 06:57:30;;;;;;;11.35;5.85;;;;;;;;;;5051159;28;20037;-76
2023/04/27 06:59:56;;;;;;;8.73;5.63;;;;;;;;;;5039028;28;20017;-76
2023/04/27 07:02:21;;;;;;;8.07;4.82;;;;;;;;;;5052759;28;20071;-76
2023/04/27 07:04:47;;;;;;;9.48;5.82;;;;;;;;;;5034678;28;20116;-75
2023/04/27 07:07:12;;;;;;;9.80;5.32;;;;;;;;;;5052927;28;20029;-75
2023/04/27 07:09:38;;;;;;;8.55;5.45;;;;;;;;;;5050773;28;20547;-75
2023/04/27 07:12:04;;;;;;;8.90;5.70;;;;;;;;;;5051457;28;20044;-75
2023/04/27 07:14:29;;;;;;;12.80;6.50;;;;;;;;;;5053395;28;20061;-75
2023/04/27 07:16:55;;;;;;;8.82;6.55;;;;;;;;;;5053250;28;20499;-77
2023/04/27 07:19:20;;;;;;;13.25;6.55;;;;;;;;;;5055696;28;20485;-76
2023/04/27 07:21:46;;;;;;;12.13;6.93;;;;;;;;;;5054678;28;20124;-75
2023/04/27 07:24:12;;;;;;;12.52;6.57;;;;;;;;;;5055869;28;20043;-76
2023/04/27 07:26:38;;;;;;;11.55;6.65;;;;;;;;;;5054097;28;20029;-74
2023/04/27 07:29:03;;;;;;;10.60;6.07;;;;;;;;;;5057439;28;21072;-74
2023/04/27 07:31:30;;;;;;;10.77;6.78;;;;;;;;;;5056254;28;20404;-74
2023/04/27 07:33:56;;;;;;;10.27;6.05;;;;;;;;;;5059878;28;20064;-75
2023/04/27 07:36:22;;;;;;;11.38;6.40;;;;;;;;;;5056867;28;20045;-76
2023/04/27 07:38:47;;;;;;;7.82;5.88;;;;;;;;;;5062403;28;20103;-77
2023/04/27 07:41:13;;;;;;;9.35;6.20;;;;;;;;;;5057021;28;20151;-74
2023/04/27 07:43:38;;;;;;;9.18;5.90;;;;;;;;;;5062385;28;20058;-75
2023/04/27 07:46:04;;;;;;;10.57;6.03;;;;;;;;;;5056933;28;20037;-74
2023/04/27 07:48:30;;;;;;;11.23;8.10;;;;;;;;;;5063025;28;20066;-75
2023/04/27 07:50:56;;;;;;;10.77;6.80;;;;;;;;;;5057409;28;20036;-76
2023/04/27 07:53:22;;;;;;;10.48;6.07;;;;;;;;;;5065003;28;20086;-76
2023/04/27 07:55:47;;;;;;;10.15;5.53;;;;;;;;;;5058645;28;20060;-76
2023/04/27 07:58:12;;;;;;;8.57;4.80;;;;;;;;;;5057460;28;20029;-76
2023/04/27 08:00:38;;;;;;;8.85;5.13;;;;;;;;;;5051327;28;20071;-76
2023/04/27 08:03:03;;;;;;;12.60;5.30;;;;;;;;;;5053675;28;20511;-76
2023/04/27 08:05:29;;;;;;;7.22;4.80;;;;;;;;;;5048574;28;20033;-76
2023/04/27 08:07:54;;;;;;;9.20;5.07;;;;;;;;;;5052496;28;20391;-76
2023/04/27 08:10:20;;;;;;;9.27;5.10;;;;;;;;;;5053158;28;20095;-75
2023/04/27 08:12:45;;;;;;;10.05;4.80;;;;;;;;;;5056407;28;20020;-75
2023/04/27 08:15:11;;;;;;;5.35;3.78;;;;;;;;;;5051669;28;20055;-75
2023/04/27 08:17:39;;;;;;;7.65;4.50;;;;;;;;;;5048810;28;20032;-75
2023/04/27 08:20:05;;;;;;;6.03;3.65;;;;;;;;;;5050747;28;20029;-76
2023/04/27 08:22:31;;;;;;;7.90;3.90;;;;;;;;;;5050107;28;20027;-75
2023/04/27 08:24:56;;;;;;;15.50;4.53;;;;;;;;;;5032709;28;20419;-76
2023/04/27 08:27:22;;;;;;;10.10;5.57;;;;;;;;;;5049409;28;20493;-76
2023/04/27 08:29:47;;;;;;;13.95;4.88;;;;;;;;;;5051145;28;20128;-76
2023/04/27 08:32:13;;;;;;;12.15;4.80;;;;;;;;;;5050566;28;20107;-75
2023/04/27 08:34:38;;;;;;;6.03;4.13;;;;;;;;;;5049968;28;20052;-75
2023/04/27 08:37:04;;;;;;;9.43;4.20;;;;;;;;;;5050784;28;20036;-75
2023/04/27 08:39:29;;;;;;;7.13;3.90;;;;;;;;;;5052232;28;20044;-75
2023/04/27 08:41:55;;;;;;;5.70;3.97;;;;;;;;;;5051091;28;20016;-75
2023/04/27 08:44:20;;;;;;;5.78;3.63;;;;;;;;;;5048665;28;20376;-75
2023/04/27 08:46:46;;;;;;;7.20;3.53;;;;;;;;;;5051386;28;20117;-75
2023/04/27 08:49:11;;;;;;;5.35;3.83;;;;;;;;;;5050268;28;20037;-74
2023/04/27 08:51:37;;;;;;;4.15;3.42;;;;;;;;;;5051929;28;20020;-75
2023/04/27 08:54:02;;;;;;;6.72;2.95;;;;;;;;;;5050518;28;20068;-75
2023/04/27 08:56:28;;;;;;;3.83;2.90;;;;;;;;;;5053767;28;20024;-75
2023/04/27 08:58:54;;;;;;;4.68;3.20;;;;;;;;;;5052712;28;20079;-75
2023/04/27 09:01:20;;;;;;;4.03;2.92;;;;;;;;;;5065576;28;20024;-76
2023/04/27 09:03:46;;;;;;;5.68;3.20;;;;;;;;;;5061953;28;20040;-74
2023/04/27 09:06:11;;;;;;;6.32;2.92;;;;;;;;;;5068541;28;20032;-75
2023/04/27 09:08:47;;;;;;;5.15;3.33;;;;;;;;;;5044975;28;20407;-75
2023/04/27 09:11:13;;;;;;;8.20;3.60;;;;;;;;;;5051850;28;20045;-74
2023/04/27 09:13:39;;;;;;;4.15;2.95;;;;;;;;;;5040828;28;20061;-74
2023/04/27 09:16:05;;;;;;;5.30;2.75;;;;;;;;;;5053634;28;20044;-74
2023/04/27 09:18:33;;;;;;;4.63;2.88;;;;;;;;;;5053409;28;20488;-76
2023/04/27 09:20:58;;;;;;;5.00;2.70;;;;;;;;;;5065323;28;20075;-76
2023/04/27 09:23:25;;;;;;;6.28;2.70;;;;;;;;;;5053264;28;20052;-76
2023/04/27 09:25:50;;;;;;;7.38;3.33;;;;;;;;;;5069632;28;20028;-76
2023/04/27 09:28:16;;;;;;;5.85;3.13;;;;;;;;;;5067808;28;20039;-73
2023/04/27 09:30:41;;;;;;;5.60;3.15;;;;;;;;;;5058410;28;20040;-75
2023/04/27 09:33:06;;;;;;;5.57;2.80;;;;;;;;;;5056516;28;20032;-75
2023/04/27 09:35:32;;;;;;;4.28;2.60;;;;;;;;;;5034583;28;20033;-75
2023/04/27 09:37:57;;;;;;;5.43;2.92;;;;;;;;;;5062981;28;20029;-75
2023/04/27 09:40:28;;;;;;;4.00;2.60;;;;;;;;;;5057028;28;20041;-75
2023/04/27 09:42:57;;;;;;;7.00;2.97;;;;;;;;;;5055647;28;20021;-75
2023/04/27 09:45:23;;;;;;;5.35;2.92;;;;;;;;;;5055467;28;20044;-76
2023/04/27 09:47:48;;;;;;;4.18;2.60;;;;;;;;;;5061058;28;20036;-75
2023/04/27 09:50:14;;;;;;;4.00;2.65;;;;;;;;;;5057393;28;20025;-76
2023/04/27 09:52:39;;;;;;;6.90;2.75;;;;;;;;;;5056716;28;20319;-75
2023/04/27 09:55:06;;;;;;;4.70;2.60;;;;;;;;;;5050908;28;20033;-76
2023/04/27 09:57:32;;;;;;;5.15;2.70;;;;;;;;;;5050325;28;20487;-76
2023/04/27 10:00:06;;;;;;;6.55;2.95;;;;;;;;;;5053660;28;20428;-76
2023/04/27 10:02:35;;;;;;;4.97;2.60;;;;;;;;;;5053058;28;20045;-76
2023/04/27 10:05:09;;;;;;;6.15;2.50;;;;;;;;;;5050901;28;20036;-76
2023/04/27 10:07:36;;;;;;;3.97;2.33;;;;;;;;;;5051167;28;20032;-75
2023/04/27 10:10:02;;;;;;;3.70;2.33;;;;;;;;;;5052172;28;20025;-75
2023/04/27 10:12:32;;;;;;;5.18;2.53;;;;;;;;;;5053245;28;20043;-75
2023/04/27 10:14:58;;;;;;;5.97;2.70;;;;;;;;;;5050638;28;20107;-75
2023/04/27 10:17:30;;;;;;;4.78;2.50;;;;;;;;;;5052323;28;20029;-74
2023/04/27 10:19:57;;;;;;;3.15;2.20;;;;;;;;;;5052600;28;20082;-75
2023/04/27 10:22:22;;;;;;;4.65;2.35;;;;;;;;;;5034530;28;20040;-75
2023/04/27 10:24:48;;;;;;;3.63;2.47;;;;;;;;;;5034834;28;20434;-75
2023/04/27 10:27:15;;;;;;;5.45;2.03;;;;;;;;;;5051837;28;20061;-75
2023/04/27 10:29:41;;;;;;;2.92;2.08;;;;;;;;;;5051920;28;20123;-75
2023/04/27 10:32:07;;;;;;;3.83;2.20;;;;;;;;;;5050137;28;20021;-75
2023/04/27 10:34:33;;;;;;;3.03;1.80;;;;;;;;;;5058726;28;20041;-75
2023/04/27 10:37:06;;;;;;;5.30;1.90;;;;;;;;;;5056958;28;20127;-78
2023/04/27 10:39:36;;;;;;;2.80;1.73;;;;;;;;;;5059529;28;20037;-75
2023/04/27 10:42:01;;;;;;;2.97;1.75;;;;;;;;;;5034986;28;20082;-75
2023/04/27 10:44:28;;;;;;;3.20;1.90;;;;;;;;;;5052662;28;20037;-75
2023/04/27 10:46:53;;;;;;;3.72;1.90;;;;;;;;;;5056868;28;20491;-75
2023/04/27 10:49:19;;;;;;;3.97;1.70;;;;;;;;;;5053056;28;20051;-74
2023/04/27 10:51:45;;;;;;;3.00;1.90;;;;;;;;;;5051400;28;20025;-76
2023/04/27 10:54:11;;;;;;;3.67;1.90;;;;;;;;;;5051675;28;20377;-74
2023/04/27 10:56:36;;;;;;;3.65;1.77;;;;;;;;;;5050722;28;20029;-77
2023/04/27 10:59:03;;;;;;;3.83;1.80;;;;;;;;;;5051000;28;20040;-74
2023/04/27 11:01:28;;;;;;;3.53;1.90;;;;;;;;;;5051383;28;20392;-75
2023/04/27 11:03:55;;;;;;;4.38;2.05;;;;;;;;;;5051807;28;20036;-75
2023/04/27 11:06:20;;;;;;;4.45;2.00;;;;;;;;;;5053209;28;20438;-74
2023/04/27 11:08:46;;;;;;;4.13;2.00;;;;;;;;;;5052138;28;20035;-75
2023/04/27 11:11:15;;;;;;;4.75;2.00;;;;;;;;;;5052646;28;20438;-74
2023/04/27 11:13:42;;;;;;;2.80;1.70;;;;;;;;;;5051707;28;20187;-74
2023/04/27 11:16:07;;;;;;;4.57;1.83;;;;;;;;;;5052374;28;20561;-75
2023/04/27 11:18:35;;;;;;;4.35;1.63;;;;;;;;;;5048854;28;20064;-75
2023/04/27 11:21:10;;;;;;;3.28;1.77;;;;;;;;;;5033011;28;20029;-76
2023/04/27 11:23:37;;;;;;;5.82;2.13;;;;;;;;;;5033222;28;20917;-75
2023/04/27 11:26:13;;;;;;;6.22;2.00;;;;;;;;;;5054368;28;20385;-76
2023/04/27 11:28:39;;;;;;;4.30;1.80;;;;;;;;;;5051388;28;20033;-76
2023/04/27 11:31:04;;;;;;;3.97;1.80;;;;;;;;;;5067314;28;20027;-76
2023/04/27 11:33:30;;;;;;;8.95;2.00;;;;;;;;;;5058371;28;20447;-76
2023/04/27 11:35:56;;;;;;;5.38;1.75;;;;;;;;;;5063107;28;20086;-76
2023/04/27 11:38:21;;;;;;;3.38;1.75;;;;;;;;;;5065920;28;20044;-75
2023/04/27 11:40:57;;;;;;;4.93;2.03;;;;;;;;;;5043011;28;20033;-75
2023/04/27 11:43:24;;;;;;;4.20;1.90;;;;;;;;;;5063683;28;20028;-76
2023/04/27 11:45:50;;;;;;;5.72;2.50;;;;;;;;;;5041406;28;20039;-74
2023/04/27 11:48:15;;;;;;;3.28;1.77;;;;;;;;;;5050247;28;20040;-75
2023/04/27 11:50:45;;;;;;;6.22;2.15;;;;;;;;;;5050577;28;20488;-75
2023/04/27 11:53:10;;;;;;;5.45;1.80;;;;;;;;;;5045175;28;20060;-75
2023/04/27 11:55:40;;;;;;;3.80;1.75;;;;;;;;;;5055119;28;20489;-75
2023/04/27 11:58:06;;;;;;;4.97;2.10;;;;;;;;;;5063725;28;20048;-76
2023/04/27 12:00:31;;;;;;;4.22;2.05;;;;;;;;;;5050096;28;20090;-75
2023/04/27 12:02:57;;;;;;;3.58;1.85;;;;;;;;;;5050712;28;20037;-75
2023/04/27 12:05:22;;;;;;;3.97;1.83;;;;;;;;;;5059094;28;20301;-75
2023/04/27 12:07:48;;;;;;;3.65;2.20;;;;;;;;;;5060707;28;20044;-75
2023/04/27 12:10:13;;;;;;;3.20;1.95;;;;;;;;;;5049659;28;20483;-75
2023/04/27 12:12:39;;;;;;;4.00;1.90;;;;;;;;;;5048473;28;20043;-76
2023/04/27 12:15:05;;;;;;;5.25;2.38;;;;;;;;;;5066443;28;20052;-75
2023/04/27 12:17:31;;;;;;;3.92;1.80;;;;;;;;;;5053941;28;20033;-76
2023/04/27 12:19:57;;;;;;;4.10;2.22;;;;;;;;;;5064431;28;20017;-76
2023/04/27 12:22:22;;;;;;;4.53;2.00;;;;;;;;;;5050192;28;20032;-76
2023/04/27 12:24:48;;;;;;;3.17;2.20;;;;;;;;;;5049240;28;20028;-76
2023/04/27 12:27:13;;;;;;;5.32;2.25;;;;;;;;;;5048783;28;20037;-76
2023/04/27 12:29:39;;;;;;;3.33;1.77;;;;;;;;;;5049728;28;20033;-76
2023/04/27 12:32:04;;;;;;;6.10;2.30;;;;;;;;;;5054177;28;20036;-76
2023/04/27 12:34:30;;;;;;;4.10;1.95;;;;;;;;;;5053957;28;20047;-76
2023/04/27 12:36:56;;;;;;;6.15;2.22;;;;;;;;;;5053633;28;20045;-76
2023/04/27 12:39:24;;;;;;;6.38;2.95;;;;;;;;;;5053625;28;20037;-76
2023/04/27 12:41:49;;;;;;;4.15;2.58;;;;;;;;;;5058183;28;20021;-76
2023/04/27 12:44:15;;;;;;;6.15;2.35;;;;;;;;;;5046421;28;20487;-76
2023/04/27 12:46:41;;;;;;;5.38;3.80;;;;;;;;;;5057668;28;20106;-76
2023/04/27 12:49:06;;;;;;;6.40;3.30;;;;;;;;;;5057691;28;20028;-76
2023/04/27 12:51:33;;;;;;;5.80;2.80;;;;;;;;;;5052131;28;20064;-76
2023/04/27 12:53:58;;;;;;;3.13;2.20;;;;;;;;;;5070911;28;20500;-77
2023/04/27 12:56:24;;;;;;;3.85;2.30;;;;;;;;;;5058275;28;20111;-76
2023/04/27 12:58:49;;;;;;;5.43;2.47;;;;;;;;;;5055167;28;20090;-76
2023/04/27 13:01:15;;;;;;;3.90;2.55;;;;;;;;;;5053239;28;20083;-76
2023/04/27 13:03:41;;;;;;;7.20;2.75;;;;;;;;;;5052200;28;20024;-75
2023/04/27 13:06:07;;;;;;;6.15;2.45;;;;;;;;;;5053878;28;20040;-76
2023/04/27 13:08:32;;;;;;;5.82;3.85;;;;;;;;;;5035421;28;20071;-76
2023/04/27 13:10:58;;;;;;;5.00;3.15;;;;;;;;;;5051906;28;20064;-76
2023/04/27 13:13:23;;;;;;;4.45;3.28;;;;;;;;;;5052944;28;20095;-76
2023/04/27 13:15:49;;;;;;;4.57;3.00;;;;;;;;;;5051474;28;20450;-76
2023/04/27 13:18:15;;;;;;;6.43;4.00;;;;;;;;;;5053239;28;20124;-76
2023/04/27 13:20:41;;;;;;;5.85;3.75;;;;;;;;;;5052648;28;20037;-77
2023/04/27 13:23:07;;;;;;;4.88;3.15;;;;;;;;;;5051691;28;20021;-76
2023/04/27 13:25:33;;;;;;;4.70;2.80;;;;;;;;;;5051734;28;20454;-76
2023/04/27 13:27:58;;;;;;;5.53;2.58;;;;;;;;;;5053593;28;20021;-77
2023/04/27 13:30:24;;;;;;;4.50;2.67;;;;;;;;;;5053741;28;20087;-75
2023/04/27 13:32:51;;;;;;;5.53;2.63;;;;;;;;;;5052492;28;20115;-78
2023/04/27 13:35:16;;;;;;;7.15;2.38;;;;;;;;;;5052469;28;20123;-74
2023/04/27 13:37:42;;;;;;;4.38;2.35;;;;;;;;;;5052856;28;20466;-79
2023/04/27 13:40:09;;;;;;;5.03;2.40;;;;;;;;;;5052714;28;20032;-79
2023/04/27 13:42:35;;;;;;;3.92;2.30;;;;;;;;;;5052242;28;20128;-79
2023/04/27 13:45:01;;;;;;;3.90;2.20;;;;;;;;;;5053834;28;20144;-79
2023/04/27 13:47:28;;;;;;;4.10;2.40;;;;;;;;;;5055603;28;20033;-80
2023/04/27 13:49:54;;;;;;;5.30;2.15;;;;;;;;;;5056604;28;20267;-79
2023/04/27 13:52:19;;;;;;;5.22;2.42;;;;;;;;;;5057268;28;20395;-79
2023/04/27 13:54:45;;;;;;;3.63;2.20;;;;;;;;;;5058259;28;20032;-78
2023/04/27 13:57:10;;;;;;;4.72;2.50;;;;;;;;;;5052742;28;20036;-78
2023/04/27 13:59:36;;;;;;;6.32;2.70;;;;;;;;;;5054375;28;20025;-78
2023/04/27 14:02:01;;;;;;;5.43;2.60;;;;;;;;;;5053125;28;20506;-79
2023/04/27 14:04:27;;;;;;;5.00;2.15;;;;;;;;;;5051146;28;20057;-79
2023/04/27 14:06:52;;;;;;;3.45;2.20;;;;;;;;;;5052860;28;20032;-79
2023/04/27 14:09:18;;;;;;;5.53;2.40;;;;;;;;;;5051454;28;20563;-79
2023/04/27 14:11:43;;;;;;;6.97;2.50;;;;;;;;;;5053001;28;20021;-79
2023/04/27 14:14:09;;;;;;;4.88;2.15;;;;;;;;;;5053021;28;20079;-78
2023/04/27 14:16:34;;;;;;;4.40;2.20;;;;;;;;;;5052743;28;20064;-78
2023/04/27 14:19:00;;;;;;;4.00;2.03;;;;;;;;;;5051974;28;20122;-79
2023/04/27 14:21:26;;;;;;;5.13;2.20;;;;;;;;;;5052256;28;20021;-78
2023/04/27 14:23:52;;;;;;;3.60;2.20;;;;;;;;;;5052870;28;20072;-78
2023/04/27 14:26:17;;;;;;;3.58;2.22;;;;;;;;;;5052577;28;20032;-78
2023/04/27 14:28:43;;;;;;;5.28;2.30;;;;;;;;;;5052151;28;20055;-79
2023/04/27 14:31:08;;;;;;;5.90;2.28;;;;;;;;;;5052306;28;20099;-78
2023/04/27 14:33:33;;;;;;;7.15;2.47;;;;;;;;;;5050419;28;20043;-78
2023/04/27 14:35:59;;;;;;;6.57;2.22;;;;;;;;;;5052944;28;20080;-79
2023/04/27 14:38:25;;;;;;;3.80;2.22;;;;;;;;;;5053828;28;20029;-79
2023/04/27 14:40:50;;;;;;;8.15;2.50;;;;;;;;;;5054075;28;20092;-78
2023/04/27 14:43:16;;;;;;;6.20;2.42;;;;;;;;;;5061259;28;20132;-79
2023/04/27 14:45:42;;;;;;;9.60;2.50;;;;;;;;;;5055166;28;20083;-79
2023/04/27 14:48:07;;;;;;;7.85;2.33;;;;;;;;;;5052934;28;20036;-79